createdAt,value
2018-07-11T00:02:47.107Z,27.73
2018-07-11T00:05:50.753Z,27.67
2018-07-11T00:08:54.601Z,21.93
2018-07-11T00:11:58.442Z,25.00
2018-07-11T00:15:02.303Z,26.30
2018-07-11T00:18:06.026Z,25.63
2018-07-11T00:21:09.771Z,26.00
2018-07-11T00:24:13.422Z,24.00
2018-07-11T00:27:17.069Z,24.97
2018-07-11T00:30:20.715Z,25.50
2018-07-11T00:33:24.510Z,22.77
2018-07-11T00:36:28.188Z,29.93
2018-07-11T00:39:31.907Z,23.30
2018-07-11T00:42:35.758Z,27.77
2018-07-11T00:45:39.733Z,25.67
2018-07-11T00:48:43.486Z,31.97
2018-07-11T00:51:47.217Z,28.33
2018-07-11T00:54:50.927Z,25.10
2018-07-11T00:57:54.731Z,25.07
2018-07-11T01:01:11.174Z,25.03
2018-07-11T01:04:14.819Z,24.97
2018-07-11T01:07:18.549Z,24.73
2018-07-11T01:10:22.337Z,24.40
2018-07-11T01:13:26.751Z,24.87
2018-07-11T01:16:30.739Z,32.47
2018-07-11T01:19:34.409Z,25.97
2018-07-11T01:22:38.028Z,28.90
2018-07-11T01:25:41.922Z,26.00
2018-07-11T01:28:45.541Z,31.23
2018-07-11T01:31:49.094Z,28.70
2018-07-11T01:34:52.772Z,24.97
2018-07-11T01:37:56.507Z,29.40
2018-07-11T01:41:00.247Z,31.20
2018-07-11T01:44:04.147Z,25.00
2018-07-11T01:47:07.823Z,28.77
2018-07-11T01:50:11.494Z,26.83
2018-07-11T01:53:15.139Z,31.87
2018-07-11T01:56:18.903Z,29.87
2018-07-11T01:59:23.942Z,26.77
2018-07-11T02:02:27.537Z,26.47
2018-07-11T02:05:31.299Z,31.83
2018-07-11T02:08:35.232Z,29.00
2018-07-11T02:11:38.937Z,32.93
2018-07-11T02:14:45.464Z,31.17
2018-07-11T02:17:49.112Z,31.27
2018-07-11T02:20:53.771Z,24.77
2018-07-11T02:24:00.593Z,26.03
2018-07-11T02:27:04.206Z,27.80
2018-07-11T02:30:07.838Z,27.73
2018-07-11T02:33:11.520Z,26.23
2018-07-11T02:36:15.194Z,26.70
2018-07-11T02:39:18.767Z,27.40
2018-07-11T02:42:22.446Z,32.27
2018-07-11T02:45:26.123Z,30.63
2018-07-11T02:48:29.750Z,30.10
2018-07-11T02:51:33.559Z,30.80
2018-07-11T02:54:37.173Z,28.00
2018-07-11T02:57:40.843Z,41.37
2018-07-11T03:00:44.445Z,30.60
2018-07-11T03:03:48.064Z,29.23
2018-07-11T03:06:51.665Z,26.07
2018-07-11T03:09:55.278Z,27.33
2018-07-11T03:12:58.994Z,33.50
2018-07-11T03:16:02.785Z,25.90
2018-07-11T03:19:06.462Z,29.10
2018-07-11T03:22:10.094Z,31.73
2018-07-11T03:25:13.852Z,24.03
2018-07-11T03:28:17.844Z,29.57
2018-07-11T03:31:21.564Z,31.87
2018-07-11T03:34:25.221Z,26.57
2018-07-11T03:37:29.125Z,28.83
2018-07-11T03:40:32.822Z,27.13
2018-07-11T03:43:36.480Z,25.63
2018-07-11T03:46:40.173Z,26.30
2018-07-11T03:49:43.774Z,28.10
2018-07-11T03:52:47.364Z,30.43
2018-07-11T03:55:50.959Z,26.67
2018-07-11T03:58:55.045Z,28.30
2018-07-11T04:01:58.625Z,26.40
2018-07-11T04:05:02.215Z,27.50
2018-07-11T04:08:05.884Z,23.00
2018-07-11T04:11:09.513Z,31.10
2018-07-11T04:14:13.023Z,25.00
2018-07-11T04:17:16.766Z,24.57
2018-07-11T04:20:20.415Z,24.57
2018-07-11T04:23:24.446Z,26.20
2018-07-11T04:26:28.234Z,27.20
2018-07-11T04:29:32.032Z,20.83
2018-07-11T04:32:36.446Z,21.90
2018-07-11T04:35:40.286Z,37.67
2018-07-11T04:38:44.040Z,21.30
2018-07-11T04:41:47.910Z,43.23
2018-07-11T04:44:51.609Z,23.23
2018-07-11T04:47:55.274Z,22.80
2018-07-11T04:50:58.959Z,29.73
2018-07-11T04:54:02.690Z,23.33
2018-07-11T04:57:06.352Z,24.70
2018-07-11T05:00:09.934Z,22.93
2018-07-11T05:03:13.601Z,27.23
2018-07-11T05:06:17.180Z,22.47
2018-07-11T05:09:20.736Z,20.23
2018-07-11T05:12:24.490Z,22.70
2018-07-11T05:15:28.130Z,24.60
2018-07-11T05:18:31.886Z,21.60
2018-07-11T05:21:35.616Z,30.67
2018-07-11T05:24:39.347Z,22.30
2018-07-11T05:27:43.064Z,27.27
2018-07-11T05:30:46.629Z,24.10
2018-07-11T05:33:50.200Z,20.73
2018-07-11T05:36:53.787Z,22.37
2018-07-11T05:39:57.402Z,23.00
2018-07-11T05:43:01.078Z,22.80
2018-07-11T05:46:04.755Z,29.20
2018-07-11T05:49:08.416Z,22.63
2018-07-11T05:52:12.183Z,28.27
2018-07-11T05:55:15.808Z,32.53
2018-07-11T05:58:19.361Z,22.60
2018-07-11T06:01:23.092Z,23.50
2018-07-11T06:04:26.615Z,27.80
2018-07-11T06:07:30.286Z,28.50
2018-07-11T06:10:34.038Z,29.30
2018-07-11T06:13:37.571Z,28.50
2018-07-11T06:16:41.196Z,20.63
2018-07-11T06:19:44.820Z,22.00
2018-07-11T06:22:48.507Z,27.20
2018-07-11T06:25:52.196Z,27.17
2018-07-11T06:28:55.717Z,28.23
2018-07-11T06:31:59.311Z,22.20
2018-07-11T06:35:02.877Z,26.40
2018-07-11T06:38:06.551Z,23.63
2018-07-11T06:41:10.138Z,31.60
2018-07-11T06:44:13.856Z,27.20
2018-07-11T06:47:17.431Z,27.17
2018-07-11T06:50:21.053Z,29.13
2018-07-11T06:53:24.711Z,22.77
2018-07-11T06:56:28.295Z,26.20
2018-07-11T06:59:32.037Z,35.93
2018-07-11T07:02:35.641Z,27.13
2018-07-11T07:05:39.193Z,40.07
2018-07-11T07:08:42.847Z,34.00
2018-07-11T07:11:46.473Z,35.23
2018-07-11T07:14:50.123Z,42.07
2018-07-11T07:17:53.823Z,33.93
2018-07-11T07:20:57.388Z,42.40
2018-07-11T07:24:01.077Z,46.60
2018-07-11T07:27:04.842Z,45.73
2018-07-11T07:30:08.462Z,38.17
2018-07-11T07:33:12.063Z,48.87
2018-07-11T07:36:15.603Z,41.43
2018-07-11T07:39:19.291Z,38.30
2018-07-11T07:42:22.992Z,38.73
2018-07-11T07:45:26.592Z,35.87
2018-07-11T07:48:30.359Z,38.07
2018-07-11T07:51:34.108Z,38.37
2018-07-11T07:54:37.938Z,33.83
2018-07-11T07:57:42.267Z,34.20
2018-07-11T08:00:46.134Z,37.40
2018-07-11T08:03:50.063Z,44.40
2018-07-11T08:06:54.180Z,35.83
2018-07-11T08:12:59.512Z,40.73
2018-07-11T08:16:03.242Z,42.33
2018-07-11T08:19:06.934Z,36.17
2018-07-11T08:22:21.964Z,32.80
2018-07-11T08:25:36.678Z,31.90
2018-07-11T08:31:27.422Z,30.20
2018-07-11T08:36:45.223Z,27.83
2018-07-11T08:42:12.526Z,29.73
2018-07-11T08:45:28.280Z,29.53
2018-07-11T08:48:41.799Z,26.60
2018-07-11T08:51:56.648Z,25.53
2018-07-11T08:57:15.725Z,29.13
2018-07-11T09:01:29.003Z,32.57
2018-07-11T09:04:47.933Z,40.70
2018-07-11T09:08:10.425Z,39.63
2018-07-11T09:11:25.301Z,36.10
2018-07-11T09:14:52.597Z,36.93
2018-07-11T09:18:07.548Z,43.07
2018-07-11T09:22:18.702Z,37.10
2018-07-11T09:25:22.597Z,40.20
2018-07-11T09:28:26.319Z,39.03
2018-07-11T09:31:29.922Z,37.90
2018-07-11T09:34:33.882Z,38.03
2018-07-11T09:37:37.525Z,42.20
2018-07-11T09:40:41.188Z,41.20
2018-07-11T09:43:44.848Z,35.50
2018-07-11T09:46:48.479Z,32.23
2018-07-11T09:49:52.123Z,29.37
2018-07-11T09:52:55.844Z,28.63
2018-07-11T09:55:59.444Z,32.27
2018-07-11T09:59:03.265Z,27.20
2018-07-11T10:02:07.015Z,30.70
2018-07-11T10:05:10.641Z,25.30
2018-07-11T10:08:14.339Z,25.00
2018-07-11T10:11:24.369Z,28.77
2018-07-11T10:14:28.029Z,26.20
2018-07-11T10:17:31.660Z,22.70
2018-07-11T10:20:35.264Z,22.47
2018-07-11T10:23:39.050Z,26.33
2018-07-11T10:26:42.669Z,28.37
2018-07-11T10:29:46.398Z,25.53
2018-07-11T10:32:50.044Z,27.07
2018-07-11T10:35:53.800Z,28.57
2018-07-11T10:38:57.490Z,29.63
2018-07-11T10:42:01.250Z,30.60
2018-07-11T10:45:05.019Z,25.00
2018-07-11T10:48:08.556Z,24.07
2018-07-11T10:51:12.320Z,21.10
2018-07-11T10:54:16.006Z,23.50
2018-07-11T10:57:19.717Z,22.80
2018-07-11T11:00:36.656Z,24.10
2018-07-11T11:03:31.241Z,27.07
2018-07-11T11:06:34.936Z,24.27
2018-07-11T11:09:38.676Z,28.00
2018-07-11T11:12:42.415Z,26.83
2018-07-11T11:15:46.065Z,28.60
2018-07-11T11:18:49.709Z,27.70
2018-07-11T11:21:53.344Z,24.00
2018-07-11T11:24:57.019Z,25.33
2018-07-11T11:28:00.755Z,27.33
2018-07-11T11:31:04.529Z,27.90
2018-07-11T11:34:08.112Z,28.53
2018-07-11T11:37:11.717Z,32.43
2018-07-11T11:40:15.289Z,34.17
2018-07-11T11:43:18.938Z,29.27
2018-07-11T11:46:22.606Z,28.43
2018-07-11T11:49:26.355Z,31.77
2018-07-11T11:52:30.106Z,31.97
2018-07-11T11:55:33.789Z,33.47
2018-07-11T11:58:37.652Z,32.90
2018-07-11T12:01:41.224Z,31.67
2018-07-11T12:04:44.809Z,30.73
2018-07-11T12:07:48.500Z,31.80
2018-07-11T12:10:52.253Z,31.57
2018-07-11T12:13:55.940Z,26.53
2018-07-11T12:16:59.559Z,28.50
2018-07-11T12:20:03.250Z,30.63
2018-07-11T12:23:06.826Z,34.20
2018-07-11T12:26:11.175Z,29.83
2018-07-11T12:29:15.066Z,30.70
2018-07-11T12:32:18.749Z,33.57
2018-07-11T12:35:22.456Z,31.70
2018-07-11T12:38:26.257Z,32.90
2018-07-11T12:41:29.885Z,32.80
2018-07-11T12:44:33.760Z,31.90
2018-07-11T12:47:42.831Z,29.53
2018-07-11T12:50:46.487Z,29.60
2018-07-11T12:53:50.124Z,32.40
2018-07-11T12:56:54.116Z,32.53
2018-07-11T12:59:57.784Z,27.10
2018-07-11T13:03:01.620Z,25.67
2018-07-11T13:06:05.670Z,24.10
2018-07-11T13:09:09.621Z,23.10
2018-07-11T13:12:13.297Z,20.80
2018-07-11T13:15:17.084Z,20.93
2018-07-11T13:18:20.767Z,16.00
2018-07-11T13:21:24.623Z,17.10
2018-07-11T13:24:28.454Z,16.87
2018-07-11T13:27:32.150Z,15.77
2018-07-11T13:30:35.841Z,15.20
2018-07-11T13:33:39.756Z,15.13
2018-07-11T13:36:43.487Z,14.30
2018-07-11T13:39:47.135Z,18.57
2018-07-11T13:42:50.732Z,11.77
2018-07-11T13:45:54.541Z,12.33
2018-07-11T13:48:58.260Z,12.17
2018-07-11T13:52:01.852Z,13.43
2018-07-11T13:55:05.709Z,11.63
2018-07-11T13:58:09.835Z,13.20
2018-07-11T14:01:13.608Z,11.60
2018-07-11T14:04:17.360Z,12.03
2018-07-11T14:07:21.115Z,11.73
2018-07-11T14:10:24.780Z,8.53
2018-07-11T14:13:28.671Z,7.67
2018-07-11T14:16:33.285Z,7.67
2018-07-11T14:19:37.124Z,12.43
2018-07-11T14:22:40.992Z,7.00
2018-07-11T14:25:44.848Z,6.83
2018-07-11T14:28:53.433Z,5.97
2018-07-11T14:31:58.051Z,5.97
2018-07-11T14:35:01.807Z,7.63
2018-07-11T14:38:05.638Z,6.63
2018-07-11T14:41:09.309Z,10.10
2018-07-11T14:44:13.053Z,11.97
2018-07-11T14:48:19.430Z,11.90
2018-07-11T14:51:23.390Z,11.70
2018-07-11T14:54:27.021Z,10.00
2018-07-11T14:57:31.058Z,11.00
2018-07-11T15:00:34.786Z,10.30
2018-07-11T15:03:38.423Z,10.00
2018-07-11T15:06:42.167Z,10.13
2018-07-11T15:09:45.853Z,10.60
2018-07-11T15:12:49.563Z,10.80
2018-07-11T15:15:53.352Z,11.73
2018-07-11T15:18:57.082Z,10.83
2018-07-11T15:22:00.837Z,14.67
2018-07-11T15:25:04.713Z,15.00
2018-07-11T15:28:08.623Z,15.40
2018-07-11T15:31:12.453Z,15.70
2018-07-11T15:34:16.349Z,21.70
2018-07-11T15:37:20.031Z,16.23
2018-07-11T15:40:23.729Z,13.97
2018-07-11T15:43:28.494Z,14.20
2018-07-11T15:46:32.283Z,20.00
2018-07-11T15:49:35.958Z,14.70
2018-07-11T15:52:40.272Z,15.07
2018-07-11T15:55:43.992Z,13.90
2018-07-11T15:58:52.883Z,14.93
2018-07-11T16:01:57.296Z,16.53
2018-07-11T16:05:01.182Z,16.10
2018-07-11T16:08:05.835Z,15.90
2018-07-11T16:11:09.560Z,17.07
2018-07-11T16:14:13.308Z,17.50
2018-07-11T16:17:17.003Z,17.80
2018-07-11T16:20:20.836Z,14.90
2018-07-11T16:23:24.664Z,12.70
2018-07-11T16:26:28.793Z,19.03
2018-07-11T16:29:32.618Z,14.17
2018-07-11T16:32:36.402Z,13.43
2018-07-11T16:35:40.044Z,13.67
2018-07-11T16:38:43.802Z,15.10
2018-07-11T16:41:47.688Z,14.57
2018-07-11T16:44:52.418Z,15.03
2018-07-11T16:47:56.552Z,15.23
2018-07-11T16:51:00.257Z,13.77
2018-07-11T16:54:04.021Z,15.53
2018-07-11T16:57:08.996Z,14.70
2018-07-11T17:00:12.884Z,15.87
2018-07-11T17:03:16.677Z,15.77
2018-07-11T17:06:20.580Z,16.33
2018-07-11T17:09:25.447Z,16.03
2018-07-11T17:12:29.288Z,15.77
2018-07-11T17:15:33.545Z,19.90
2018-07-11T17:18:41.790Z,15.60
2018-07-11T17:21:49.471Z,15.60
2018-07-11T17:25:03.300Z,14.73
2018-07-11T17:28:06.992Z,13.93
2018-07-11T17:31:10.768Z,18.93
2018-07-11T17:34:14.504Z,18.27
2018-07-11T17:37:20.356Z,15.70
2018-07-11T17:40:25.703Z,15.10
2018-07-11T17:43:40.106Z,12.90
2018-07-11T17:46:44.442Z,15.00
2018-07-11T17:49:54.394Z,14.87
2018-07-11T17:53:07.325Z,13.60
2018-07-11T17:56:12.596Z,13.73
2018-07-11T17:59:16.588Z,16.53
2018-07-11T18:02:26.143Z,14.80
2018-07-11T18:05:35.548Z,15.40
2018-07-11T18:08:50.688Z,13.80
2018-07-11T18:11:59.760Z,17.40
2018-07-11T18:15:44.933Z,14.83
2018-07-11T18:18:58.784Z,18.13
2018-07-11T18:22:30.423Z,16.20
2018-07-11T18:25:48.635Z,22.20
2018-07-11T18:29:03.265Z,19.83
2018-07-11T18:32:14.705Z,27.47
2018-07-11T18:35:39.964Z,19.20
2018-07-11T18:39:00.208Z,17.63
2018-07-11T18:44:20.750Z,19.17
2018-07-11T18:48:33.040Z,19.67
2018-07-11T18:51:44.202Z,19.87
2018-07-11T18:55:03.153Z,20.30
2018-07-11T18:59:27.634Z,20.77
2018-07-11T19:03:39.326Z,27.07
2018-07-11T19:06:51.028Z,23.50
2018-07-11T19:09:57.636Z,23.93
2018-07-11T19:13:01.584Z,27.70
2018-07-11T19:16:28.225Z,26.47
2018-07-11T19:20:38.873Z,24.83
2018-07-11T19:24:04.498Z,26.10
2018-07-11T19:27:17.401Z,32.93
2018-07-11T19:30:34.230Z,27.50
2018-07-11T19:33:50.154Z,28.47
2018-07-11T19:36:59.755Z,32.00
2018-07-11T19:40:12.802Z,26.47
2018-07-11T19:43:32.638Z,28.87
2018-07-11T19:46:43.426Z,29.97
2018-07-11T19:49:56.789Z,28.60
2018-07-11T19:53:13.371Z,32.73
2018-07-11T19:56:48.499Z,32.60
2018-07-11T19:59:52.236Z,31.60
2018-07-11T20:02:56.111Z,30.07
2018-07-11T20:05:59.971Z,29.13
2018-07-11T20:09:04.878Z,32.13
2018-07-11T20:12:08.721Z,30.00
2018-07-11T20:15:12.530Z,30.50
2018-07-11T20:18:16.466Z,32.10
2018-07-11T20:21:21.087Z,30.83
2018-07-11T20:24:25.215Z,34.37
2018-07-11T20:27:28.915Z,34.50
2018-07-11T20:30:32.881Z,37.73
2018-07-11T20:33:36.436Z,33.37
2018-07-11T20:36:40.071Z,33.80
2018-07-11T20:39:43.759Z,35.10
2018-07-11T20:42:47.781Z,37.47
2018-07-11T20:45:52.130Z,33.13
2018-07-11T20:48:55.877Z,30.77
2018-07-11T20:51:59.479Z,32.37
2018-07-11T20:55:03.207Z,27.80
2018-07-11T20:58:17.986Z,30.20
2018-07-11T21:01:32.676Z,26.60
2018-07-11T21:05:01.995Z,28.27
2018-07-11T21:09:48.294Z,24.77
2018-07-11T21:13:11.034Z,29.60
2018-07-11T21:18:29.150Z,24.97
2018-07-11T21:21:33.746Z,24.73
2018-07-11T21:24:37.679Z,32.00
2018-07-11T21:27:41.384Z,24.90
2018-07-11T21:30:45.036Z,27.10
2018-07-11T21:33:49.019Z,27.93
2018-07-11T21:36:52.601Z,27.63
2018-07-11T21:39:56.390Z,25.50
2018-07-11T21:43:00.082Z,30.50
2018-07-11T21:46:04.325Z,31.03
2018-07-11T21:49:07.978Z,33.07
2018-07-11T21:52:11.686Z,35.10
2018-07-11T21:55:15.368Z,29.40
2018-07-11T21:58:19.395Z,33.70
2018-07-11T22:01:23.031Z,37.40
2018-07-11T22:04:26.674Z,30.27
2018-07-11T22:07:30.255Z,36.63
2018-07-11T22:10:34.195Z,33.13
2018-07-11T22:13:37.897Z,33.70
2018-07-11T22:16:41.605Z,37.17
2018-07-11T22:19:43.981Z,39.97
2018-07-11T22:22:46.301Z,37.23
2018-07-11T22:25:48.760Z,31.67
2018-07-11T22:28:51.100Z,36.37
2018-07-11T22:31:53.377Z,40.07
2018-07-11T22:34:55.746Z,35.50
2018-07-11T22:37:58.218Z,43.07
2018-07-11T22:41:00.627Z,43.83
2018-07-11T22:44:02.950Z,42.70
2018-07-11T22:47:05.255Z,34.80
2018-07-11T22:50:07.648Z,40.67
2018-07-11T22:53:10.051Z,37.03
2018-07-11T22:56:12.332Z,36.77
2018-07-11T22:59:14.664Z,38.47
2018-07-11T23:02:16.973Z,32.17
2018-07-11T23:05:19.266Z,39.83
2018-07-11T23:08:21.664Z,34.93
2018-07-11T23:11:23.871Z,34.03
2018-07-11T23:14:26.246Z,35.10
2018-07-11T23:17:28.516Z,42.73
2018-07-11T23:20:30.970Z,37.57
2018-07-11T23:23:33.357Z,29.97
2018-07-11T23:26:35.718Z,33.60
2018-07-11T23:29:38.131Z,34.73
2018-07-11T23:32:40.483Z,35.00
2018-07-11T23:35:42.996Z,39.60
2018-07-11T23:38:45.325Z,34.77
2018-07-11T23:41:47.766Z,39.60
2018-07-11T23:44:50.107Z,37.10
2018-07-11T23:47:52.627Z,39.00
2018-07-11T23:50:54.913Z,37.80
2018-07-11T23:53:57.242Z,38.83
2018-07-11T23:56:59.635Z,40.93
